createdAt,value
2023-07-25T00:00:45.786Z,17.60
2023-07-25T00:02:50.331Z,17.59
2023-07-25T00:04:53.591Z,17.58
2023-07-25T00:06:56.745Z,17.57
2023-07-25T00:08:59.798Z,17.54
2023-07-25T00:11:02.940Z,17.51
2023-07-25T00:13:05.974Z,17.51
2023-07-25T00:15:09.092Z,17.48
2023-07-25T00:17:12.077Z,17.46
2023-07-25T00:19:16.523Z,17.43
2023-07-25T00:21:19.004Z,17.42
2023-07-25T00:23:22.083Z,17.41
2023-07-25T00:25:25.383Z,17.41
2023-07-25T00:27:28.523Z,17.43
2023-07-25T00:29:31.679Z,17.41
2023-07-25T00:31:35.113Z,17.41
2023-07-25T00:33:38.488Z,17.40
2023-07-25T00:35:42.907Z,17.39
2023-07-25T00:37:46.016Z,17.39
2023-07-25T00:39:48.323Z,17.39
2023-07-25T00:41:51.474Z,17.37
2023-07-25T00:43:54.534Z,17.39
2023-07-25T00:45:57.702Z,17.38
2023-07-25T00:48:00.907Z,17.38
2023-07-25T00:50:03.218Z,17.39
2023-07-25T00:52:08.559Z,17.37
2023-07-25T00:54:10.642Z,17.36
2023-07-25T00:56:15.009Z,17.36
2023-07-25T00:58:18.604Z,17.36
2023-07-25T01:00:21.782Z,17.34
2023-07-25T01:02:25.521Z,17.31
2023-07-25T01:04:28.742Z,17.30
2023-07-25T01:06:32.064Z,17.30
2023-07-25T01:08:48.875Z,17.30
2023-07-25T01:10:51.940Z,17.28
2023-07-25T01:12:55.078Z,17.30
2023-07-25T01:14:58.149Z,17.30
2023-07-25T01:17:00.564Z,17.30
2023-07-25T01:19:03.720Z,17.30
2023-07-25T01:21:06.934Z,17.30
2023-07-25T01:23:11.316Z,17.28
2023-07-25T01:25:16.353Z,17.29
2023-07-25T01:27:19.529Z,17.28
2023-07-25T01:29:22.683Z,17.27
2023-07-25T01:31:25.711Z,17.27
2023-07-25T01:33:28.777Z,17.25
2023-07-25T01:35:31.858Z,17.25
2023-07-25T01:37:34.883Z,17.25
2023-07-25T01:39:36.967Z,17.25
2023-07-25T01:41:42.222Z,17.24
2023-07-25T01:43:45.295Z,17.24
2023-07-25T01:45:48.386Z,17.24
2023-07-25T01:47:51.512Z,17.24
2023-07-25T01:49:54.928Z,17.21
2023-07-25T01:51:58.003Z,17.21
2023-07-25T01:54:01.143Z,17.20
2023-07-25T01:56:03.403Z,17.16
2023-07-25T01:58:07.886Z,17.12
2023-07-25T02:00:11.905Z,17.11
2023-07-25T02:02:17.865Z,17.10
2023-07-25T02:04:21.128Z,17.10
2023-07-25T02:06:24.173Z,17.09
2023-07-25T02:08:27.396Z,17.04
2023-07-25T02:10:31.073Z,16.99
2023-07-25T02:12:34.161Z,16.98
2023-07-25T02:14:38.728Z,16.99
2023-07-25T02:16:43.014Z,17.01
2023-07-25T02:18:46.503Z,17.02
2023-07-25T02:20:49.637Z,17.01
2023-07-25T02:22:52.738Z,17.03
2023-07-25T02:24:55.900Z,17.03
2023-07-25T02:26:59.043Z,17.01
2023-07-25T02:29:02.188Z,16.99
2023-07-25T02:31:06.726Z,17.00
2023-07-25T02:33:09.894Z,16.99
2023-07-25T02:35:13.083Z,16.99
2023-07-25T02:37:16.378Z,16.99
2023-07-25T02:39:22.245Z,17.01
2023-07-25T02:41:25.544Z,17.01
2023-07-25T02:43:28.757Z,17.00
2023-07-25T02:45:31.845Z,16.98
2023-07-25T02:47:35.324Z,16.97
2023-07-25T02:49:39.757Z,16.97
2023-07-25T02:51:42.938Z,16.97
2023-07-25T02:53:46.217Z,16.96
2023-07-25T02:55:49.821Z,16.96
2023-07-25T02:57:53.069Z,16.95
2023-07-25T02:59:56.177Z,16.96
2023-07-25T03:01:59.253Z,16.97
2023-07-25T03:04:03.745Z,16.98
2023-07-25T03:06:06.813Z,16.98
2023-07-25T03:08:10.272Z,16.99
2023-07-25T03:10:13.305Z,17.00
2023-07-25T03:12:16.477Z,17.02
2023-07-25T03:14:19.589Z,17.04
2023-07-25T03:16:22.691Z,17.05
2023-07-25T03:18:25.870Z,17.05
2023-07-25T03:20:30.445Z,17.06
2023-07-25T03:22:33.581Z,17.08
2023-07-25T03:24:36.711Z,17.08
2023-07-25T03:26:39.966Z,17.08
2023-07-25T03:28:43.108Z,17.08
2023-07-25T03:30:46.418Z,17.10
2023-07-25T03:32:49.670Z,17.10
2023-07-25T03:34:52.965Z,17.11
2023-07-25T03:36:57.430Z,17.13
2023-07-25T03:39:00.625Z,17.10
2023-07-25T03:41:03.739Z,17.11
2023-07-25T03:43:06.957Z,17.12
2023-07-25T03:45:09.948Z,17.14
2023-07-25T03:47:13.141Z,17.13
2023-07-25T03:49:17.023Z,17.15
2023-07-25T03:51:20.163Z,17.17
2023-07-25T03:53:24.688Z,17.19
2023-07-25T03:55:28.312Z,17.23
2023-07-25T03:57:31.408Z,17.25
2023-07-25T03:59:34.450Z,17.20
2023-07-25T04:01:37.550Z,17.17
2023-07-25T04:03:39.822Z,17.15
2023-07-25T04:05:43.010Z,17.17
2023-07-25T04:07:46.352Z,17.14
2023-07-25T04:09:50.995Z,17.13
2023-07-25T04:11:53.105Z,17.14
2023-07-25T04:13:56.180Z,17.16
2023-07-25T04:15:59.476Z,17.15
2023-07-25T04:18:02.713Z,17.18
2023-07-25T04:20:07.051Z,17.14
2023-07-25T04:22:10.106Z,17.14
2023-07-25T04:24:13.244Z,17.11
2023-07-25T04:26:17.716Z,17.11
2023-07-25T04:28:20.727Z,17.12
2023-07-25T04:30:23.794Z,17.14
2023-07-25T04:32:26.990Z,17.18
2023-07-25T04:34:30.195Z,17.18
2023-07-25T04:36:33.391Z,17.21
2023-07-25T04:38:36.506Z,17.24
2023-07-25T04:40:38.650Z,17.28
2023-07-25T04:42:43.012Z,17.33
2023-07-25T04:44:46.266Z,17.37
2023-07-25T04:46:49.384Z,17.41
2023-07-25T04:48:52.500Z,17.46
2023-07-25T04:50:55.646Z,17.47
2023-07-25T04:52:57.961Z,17.46
2023-07-25T04:55:00.961Z,17.45
2023-07-25T04:57:04.198Z,17.48
2023-07-25T04:59:08.784Z,17.55
2023-07-25T05:01:13.599Z,17.62
2023-07-25T05:03:16.953Z,17.69
2023-07-25T05:05:20.102Z,17.75
2023-07-25T05:07:23.203Z,17.80
2023-07-25T05:09:26.249Z,17.83
2023-07-25T05:11:29.477Z,17.87
2023-07-25T05:13:32.730Z,17.89
2023-07-25T05:15:39.015Z,17.89
2023-07-25T05:17:42.184Z,17.92
2023-07-25T05:19:45.249Z,17.94
2023-07-25T05:21:48.589Z,17.97
2023-07-25T05:23:51.644Z,17.97
2023-07-25T05:25:54.752Z,17.98
2023-07-25T05:27:57.824Z,17.99
2023-07-25T05:29:59.915Z,18.02
2023-07-25T05:32:04.564Z,18.04
2023-07-25T05:34:07.577Z,18.05
2023-07-25T05:36:09.753Z,18.05
2023-07-25T05:38:12.801Z,18.06
2023-07-25T05:40:15.923Z,18.05
2023-07-25T05:42:18.086Z,18.03
2023-07-25T05:44:21.141Z,18.00
2023-07-25T05:46:24.188Z,17.97
2023-07-25T05:48:28.691Z,17.92
2023-07-25T05:50:31.813Z,17.88
2023-07-25T05:52:34.932Z,17.84
2023-07-25T05:54:38.056Z,17.84
2023-07-25T05:56:41.201Z,17.81
2023-07-25T05:58:43.360Z,17.79
2023-07-25T06:00:47.124Z,17.79
2023-07-25T06:02:50.263Z,17.78
2023-07-25T06:04:54.774Z,17.73
2023-07-25T06:06:59.088Z,17.72
2023-07-25T06:09:02.728Z,17.71
2023-07-25T06:11:05.903Z,17.73
2023-07-25T06:13:09.322Z,17.76
2023-07-25T06:15:12.546Z,17.78
2023-07-25T06:17:15.828Z,17.76
2023-07-25T06:19:18.989Z,17.78
2023-07-25T06:21:23.504Z,17.78
2023-07-25T06:23:26.702Z,17.77
2023-07-25T06:25:29.985Z,17.79
2023-07-25T06:27:33.157Z,17.76
2023-07-25T06:29:36.282Z,17.80
2023-07-25T06:31:41.527Z,17.83
2023-07-25T06:33:45.019Z,17.88
2023-07-25T06:35:48.282Z,17.91
2023-07-25T06:37:52.736Z,17.89
2023-07-25T06:39:56.683Z,17.89
2023-07-25T06:41:59.824Z,17.92
2023-07-25T06:44:05.922Z,17.94
2023-07-25T06:46:09.212Z,17.98
2023-07-25T06:48:12.527Z,17.99
2023-07-25T06:50:15.843Z,18.04
2023-07-25T06:52:19.049Z,18.05
2023-07-25T06:54:23.587Z,18.13
2023-07-25T06:56:26.703Z,18.20
2023-07-25T06:58:32.698Z,18.20
2023-07-25T07:00:40.380Z,18.26
2023-07-25T07:02:44.096Z,18.29
2023-07-25T07:04:47.467Z,18.33
2023-07-25T07:06:50.865Z,18.33
2023-07-25T07:08:54.272Z,18.36
2023-07-25T07:10:58.829Z,18.39
2023-07-25T07:13:01.228Z,18.41
2023-07-25T07:15:04.907Z,18.45
2023-07-25T07:17:08.389Z,18.48
2023-07-25T07:19:12.470Z,18.53
2023-07-25T07:21:15.721Z,18.62
2023-07-25T07:23:19.103Z,18.69
2023-07-25T07:25:22.240Z,18.78
2023-07-25T07:27:28.228Z,18.86
2023-07-25T07:29:31.842Z,18.90
2023-07-25T07:31:35.215Z,18.96
2023-07-25T07:33:38.433Z,18.95
2023-07-25T07:35:41.647Z,18.97
2023-07-25T07:37:45.143Z,18.97
2023-07-25T07:39:48.356Z,19.00
2023-07-25T07:41:51.594Z,19.03
2023-07-25T07:43:56.142Z,19.11
2023-07-25T07:45:59.462Z,19.24
2023-07-25T07:48:02.760Z,19.34
2023-07-25T07:50:05.641Z,19.41
2023-07-25T07:52:17.615Z,19.41
2023-07-25T07:54:29.276Z,19.46
2023-07-25T07:56:32.866Z,19.48
2023-07-25T07:58:36.970Z,19.54
2023-07-25T08:00:42.007Z,19.56
2023-07-25T08:02:46.700Z,19.62
2023-07-25T08:04:49.945Z,19.72
2023-07-25T08:06:53.149Z,19.87
2023-07-25T08:08:55.359Z,20.03
2023-07-25T08:10:58.721Z,20.11
2023-07-25T08:13:01.839Z,20.11
2023-07-25T08:15:05.940Z,20.13
2023-07-25T08:17:10.836Z,20.22
2023-07-25T08:19:14.009Z,20.51
2023-07-25T08:21:17.148Z,20.69
2023-07-25T08:23:21.623Z,20.80
2023-07-25T08:25:24.936Z,20.88
2023-07-25T08:27:28.089Z,20.97
2023-07-25T08:29:31.340Z,21.17
2023-07-25T08:31:34.787Z,21.28
2023-07-25T08:33:38.573Z,21.41
2023-07-25T08:35:43.697Z,21.80
2023-07-25T08:37:47.271Z,22.18
2023-07-25T08:39:50.631Z,22.46
2023-07-25T08:41:55.269Z,22.73
2023-07-25T08:44:01.911Z,22.99
2023-07-25T08:46:08.711Z,23.25
2023-07-25T08:48:13.854Z,23.11
2023-07-25T08:50:18.961Z,22.81
2023-07-25T08:52:22.569Z,22.53
2023-07-25T08:54:31.139Z,22.34
2023-07-25T08:56:36.244Z,22.17
2023-07-25T08:58:42.996Z,22.13
2023-07-25T09:00:47.130Z,22.17
2023-07-25T09:02:53.621Z,22.35
2023-07-25T09:04:57.904Z,22.46
2023-07-25T09:07:03.131Z,22.54
2023-07-25T09:09:06.065Z,22.61
2023-07-25T09:11:11.286Z,22.79
2023-07-25T09:13:14.788Z,23.03
2023-07-25T09:15:18.108Z,23.05
2023-07-25T09:17:21.746Z,23.13
2023-07-25T09:19:25.216Z,23.51
2023-07-25T09:21:28.411Z,23.72
2023-07-25T09:23:33.116Z,23.94
2023-07-25T09:25:36.514Z,24.13
2023-07-25T09:27:39.726Z,24.10
2023-07-25T09:29:43.251Z,24.26
2023-07-25T09:31:47.903Z,24.47
2023-07-25T09:33:54.752Z,24.53
2023-07-25T09:36:00.679Z,24.32
2023-07-25T09:38:03.963Z,24.23
2023-07-25T09:40:13.185Z,24.13
2023-07-25T09:42:16.505Z,24.02
2023-07-25T09:44:19.653Z,23.89
2023-07-25T09:46:23.261Z,23.77
2023-07-25T09:48:27.685Z,23.69
2023-07-25T09:50:35.320Z,23.57
2023-07-25T09:52:42.953Z,23.33
2023-07-25T09:54:46.303Z,23.22
2023-07-25T09:56:53.469Z,22.91
2023-07-25T10:01:05.150Z,22.51
2023-07-25T10:03:11.327Z,22.78
2023-07-25T10:05:14.710Z,22.86
2023-07-25T10:07:19.046Z,22.95
2023-07-25T10:09:23.120Z,23.14
2023-07-25T10:11:26.801Z,23.15
2023-07-25T10:13:34.024Z,23.10
2023-07-25T10:15:37.869Z,23.22
2023-07-25T10:17:40.183Z,23.37
2023-07-25T10:19:51.776Z,23.65
2023-07-25T10:21:56.174Z,23.65
2023-07-25T10:24:02.250Z,23.68
2023-07-25T10:26:13.452Z,23.75
2023-07-25T10:28:25.640Z,23.59
2023-07-25T10:30:31.049Z,23.43
2023-07-25T10:32:49.033Z,23.38
2023-07-25T10:34:55.810Z,23.51
2023-07-25T10:37:31.332Z,23.66
2023-07-25T10:39:35.129Z,23.75
2023-07-25T10:41:38.162Z,23.95
2023-07-25T10:44:03.350Z,23.75
2023-07-25T10:46:08.979Z,23.40
2023-07-25T10:48:44.362Z,23.22
2023-07-25T10:50:52.290Z,23.33
2023-07-25T10:52:55.497Z,23.33
2023-07-25T10:55:04.503Z,23.26
2023-07-25T10:57:18.536Z,23.33
2023-07-25T10:59:21.804Z,23.40
2023-07-25T11:01:44.291Z,23.38
2023-07-25T11:03:47.563Z,23.28
2023-07-25T11:05:50.589Z,23.30
2023-07-25T11:07:56.172Z,23.28
2023-07-25T11:09:59.379Z,23.27
2023-07-25T11:12:02.511Z,23.11
2023-07-25T11:14:08.512Z,22.87
2023-07-25T11:16:12.751Z,22.70
2023-07-25T11:18:16.189Z,22.48
2023-07-25T11:20:20.567Z,22.46
2023-07-25T11:22:23.702Z,22.53
2023-07-25T11:24:26.939Z,22.67
2023-07-25T11:26:29.172Z,22.89
2023-07-25T11:28:32.306Z,22.97
2023-07-25T11:30:35.868Z,23.04
2023-07-25T11:32:38.149Z,23.07
2023-07-25T11:34:50.295Z,23.12
2023-07-25T11:36:54.050Z,23.18
2023-07-25T11:38:58.516Z,23.22
2023-07-25T11:41:01.666Z,23.19
2023-07-25T11:43:12.478Z,23.21
2023-07-25T11:45:16.546Z,23.28
2023-07-25T11:47:19.671Z,23.45
2023-07-25T11:49:40.142Z,23.51
2023-07-25T11:51:48.873Z,23.44
2023-07-25T11:53:51.993Z,23.37
2023-07-25T11:55:56.534Z,23.28
2023-07-25T11:58:03.502Z,23.19
2023-07-25T12:00:08.118Z,23.12
2023-07-25T12:02:13.515Z,22.98
2023-07-25T12:04:17.968Z,22.82
2023-07-25T12:06:29.012Z,22.69
2023-07-25T12:08:35.106Z,22.54
2023-07-25T12:10:39.188Z,22.36
2023-07-25T12:12:46.321Z,22.29
2023-07-25T12:15:02.823Z,22.23
2023-07-25T12:17:06.515Z,22.29
2023-07-25T12:19:12.638Z,22.28
2023-07-25T12:21:24.147Z,22.26
2023-07-25T12:23:30.406Z,22.27
2023-07-25T12:25:37.345Z,22.22
2023-07-25T12:27:46.528Z,22.07
2023-07-25T12:29:49.672Z,21.91
2023-07-25T12:31:53.411Z,21.76
2023-07-25T12:33:56.583Z,21.66
2023-07-25T12:35:58.998Z,21.62
2023-07-25T12:38:02.120Z,21.66
2023-07-25T12:40:06.068Z,21.66
2023-07-25T12:42:10.490Z,21.46
2023-07-25T12:44:14.320Z,21.38
2023-07-25T12:46:17.431Z,21.39
2023-07-25T12:48:20.546Z,21.40
2023-07-25T12:50:24.142Z,21.34
2023-07-25T12:52:27.300Z,21.27
2023-07-25T12:54:31.069Z,21.22
2023-07-25T12:56:34.451Z,21.15
2023-07-25T12:58:39.333Z,21.15
2023-07-25T13:00:42.469Z,21.12
2023-07-25T13:02:46.171Z,21.07
2023-07-25T13:04:49.311Z,21.04
2023-07-25T13:06:52.545Z,21.01
2023-07-25T13:08:54.695Z,20.96
2023-07-25T13:10:57.731Z,20.95
2023-07-25T13:13:00.936Z,20.94
2023-07-25T13:15:05.099Z,20.91
2023-07-25T13:17:08.366Z,20.85
2023-07-25T13:19:13.553Z,20.78
2023-07-25T13:21:16.713Z,20.74
2023-07-25T13:23:20.247Z,20.77
2023-07-25T13:25:22.450Z,20.84
2023-07-25T13:27:26.882Z,20.94
2023-07-25T13:29:29.214Z,21.09
2023-07-25T13:31:34.341Z,21.20
2023-07-25T13:33:37.804Z,21.27
2023-07-25T13:35:41.053Z,21.34
2023-07-25T13:37:44.277Z,21.36
2023-07-25T13:39:47.401Z,21.34
2023-07-25T13:41:50.672Z,21.34
2023-07-25T13:43:53.771Z,21.32
2023-07-25T13:45:57.237Z,21.27
2023-07-25T13:48:02.180Z,21.23
2023-07-25T13:50:05.975Z,21.21
2023-07-25T13:52:09.279Z,21.22
2023-07-25T13:54:12.366Z,21.24
2023-07-25T13:56:15.449Z,21.27
2023-07-25T14:00:24.543Z,21.32
2023-07-25T14:02:26.811Z,21.24
2023-07-25T14:04:31.289Z,21.27
2023-07-25T14:06:34.616Z,21.29
2023-07-25T14:08:37.732Z,21.32
2023-07-25T14:10:41.942Z,21.39
2023-07-25T14:12:45.240Z,21.44
2023-07-25T14:14:48.420Z,21.48
2023-07-25T14:16:51.547Z,21.47
2023-07-25T14:18:54.703Z,21.45
2023-07-25T14:21:00.727Z,21.42
2023-07-25T14:23:04.155Z,21.38
2023-07-25T14:25:07.918Z,21.37
2023-07-25T14:27:11.083Z,21.39
2023-07-25T14:29:14.509Z,21.39
2023-07-25T14:31:17.557Z,21.34
2023-07-25T14:33:21.887Z,21.36
2023-07-25T14:35:24.979Z,21.41
2023-07-25T14:37:37.133Z,21.46
2023-07-25T14:39:52.533Z,21.45
2023-07-25T14:41:55.607Z,21.42
2023-07-25T14:43:57.882Z,21.44
2023-07-25T14:46:03.035Z,21.45
2023-07-25T14:48:07.190Z,21.46
2023-07-25T14:50:12.001Z,21.47
2023-07-25T14:52:15.032Z,21.49
2023-07-25T14:54:19.535Z,21.49
2023-07-25T14:56:22.706Z,21.51
2023-07-25T14:58:26.114Z,21.47
2023-07-25T15:00:29.934Z,21.35
2023-07-25T15:02:33.174Z,21.36
2023-07-25T15:04:36.364Z,21.37
2023-07-25T15:06:39.401Z,21.30
2023-07-25T15:08:42.649Z,21.26
2023-07-25T15:10:47.213Z,21.23
2023-07-25T15:12:50.381Z,21.22
2023-07-25T15:14:53.596Z,21.30
2023-07-25T15:16:57.558Z,21.53
2023-07-25T15:19:00.826Z,21.72
2023-07-25T15:21:04.160Z,21.78
2023-07-25T15:23:07.309Z,21.80
2023-07-25T15:25:10.693Z,21.82
2023-07-25T15:27:15.132Z,21.83
2023-07-25T15:29:18.241Z,21.81
2023-07-25T15:31:22.148Z,21.79
2023-07-25T15:33:25.504Z,21.75
2023-07-25T15:35:27.722Z,21.69
2023-07-25T15:37:30.867Z,21.69
2023-07-25T15:39:33.989Z,21.60
2023-07-25T15:41:37.163Z,21.55
2023-07-25T15:43:41.666Z,21.56
2023-07-25T15:45:44.846Z,21.55
2023-07-25T15:47:47.913Z,21.50
2023-07-25T15:49:51.034Z,21.44
2023-07-25T15:51:54.194Z,21.30
2023-07-25T15:53:57.309Z,21.17
2023-07-25T15:56:00.469Z,21.11
2023-07-25T15:58:04.270Z,21.07
2023-07-25T16:00:10.996Z,21.00
2023-07-25T16:02:14.168Z,20.90
2023-07-25T16:04:17.318Z,20.79
2023-07-25T16:06:20.559Z,20.71
2023-07-25T16:08:23.718Z,20.65
2023-07-25T16:10:26.939Z,20.56
2023-07-25T16:12:30.024Z,20.44
2023-07-25T16:14:32.041Z,20.29
2023-07-25T16:16:36.577Z,20.17
2023-07-25T16:18:39.696Z,20.08
2023-07-25T16:20:42.958Z,20.02
2023-07-25T16:22:46.076Z,19.98
2023-07-25T16:24:49.172Z,19.97
2023-07-25T16:26:52.324Z,19.98
2023-07-25T16:28:55.386Z,19.98
2023-07-25T16:31:16.920Z,20.00
2023-07-25T16:33:22.995Z,20.01
2023-07-25T16:35:26.032Z,20.00
2023-07-25T16:37:29.421Z,19.99
2023-07-25T16:39:32.556Z,19.96
2023-07-25T16:41:35.956Z,19.94
2023-07-25T16:43:38.079Z,19.91
2023-07-25T16:45:41.286Z,19.86
2023-07-25T16:47:43.466Z,19.81
2023-07-25T16:49:48.002Z,19.75
2023-07-25T16:51:51.062Z,19.74
2023-07-25T16:53:54.168Z,19.65
2023-07-25T16:55:57.233Z,19.54
2023-07-25T16:58:00.336Z,19.40
2023-07-25T17:00:05.010Z,19.26
2023-07-25T17:02:08.681Z,19.13
2023-07-25T17:04:10.797Z,19.03
2023-07-25T17:06:15.290Z,18.89
2023-07-25T17:08:18.386Z,18.76
2023-07-25T17:10:21.501Z,18.70
2023-07-25T17:12:23.751Z,18.66
2023-07-25T17:14:26.792Z,18.65
2023-07-25T17:16:30.108Z,18.63
2023-07-25T17:18:33.414Z,18.60
2023-07-25T17:20:36.787Z,18.57
2023-07-25T17:22:41.288Z,18.57
2023-07-25T17:24:44.510Z,18.56
2023-07-25T17:26:47.680Z,18.53
2023-07-25T17:28:50.766Z,18.52
2023-07-25T17:30:53.870Z,18.46
2023-07-25T17:32:58.725Z,18.40
2023-07-25T17:35:03.092Z,18.33
2023-07-25T17:37:07.677Z,18.28
2023-07-25T17:39:12.197Z,18.22
2023-07-25T17:41:15.597Z,18.19
2023-07-25T17:43:18.831Z,18.16
2023-07-25T17:45:21.096Z,18.14
2023-07-25T17:47:24.467Z,18.14
2023-07-25T17:49:27.592Z,18.11
2023-07-25T17:51:30.994Z,18.11
2023-07-25T17:53:34.301Z,18.09
2023-07-25T17:55:41.304Z,18.07
2023-07-25T17:57:44.853Z,18.07
2023-07-25T17:59:48.043Z,18.05
2023-07-25T18:01:51.142Z,18.06
2023-07-25T18:03:54.389Z,18.07
2023-07-25T18:05:57.533Z,18.06
2023-07-25T18:08:00.688Z,18.06
2023-07-25T18:10:03.866Z,18.06
2023-07-25T18:12:09.647Z,18.02
2023-07-25T18:14:12.833Z,17.94
2023-07-25T18:16:17.188Z,17.93
2023-07-25T18:18:20.913Z,17.91
2023-07-25T18:20:24.570Z,17.90
2023-07-25T18:22:32.163Z,17.85
2023-07-25T18:24:35.385Z,17.79
2023-07-25T18:26:39.224Z,17.76
2023-07-25T18:28:44.211Z,17.67
2023-07-25T18:30:47.285Z,17.64
2023-07-25T18:32:50.528Z,17.58
2023-07-25T18:34:53.866Z,17.47
2023-07-25T18:36:57.000Z,17.43
2023-07-25T18:39:01.572Z,17.35
2023-07-25T18:41:04.854Z,17.28
2023-07-25T18:43:07.994Z,17.28
2023-07-25T18:45:12.843Z,17.28
2023-07-25T18:47:28.656Z,17.24
2023-07-25T18:49:37.332Z,17.23
2023-07-25T18:51:40.564Z,17.25
2023-07-25T18:53:43.755Z,17.28
2023-07-25T18:55:48.947Z,17.29
2023-07-25T18:57:52.063Z,17.30
2023-07-25T18:59:56.799Z,17.32
2023-07-25T19:02:01.383Z,17.32
2023-07-25T19:04:04.601Z,17.31
2023-07-25T19:06:07.792Z,17.29
2023-07-25T19:08:11.108Z,17.27
2023-07-25T19:10:15.916Z,17.25
2023-07-25T19:12:20.968Z,17.25
2023-07-25T19:14:24.007Z,17.25
2023-07-25T19:16:27.280Z,17.23
2023-07-25T19:18:31.965Z,17.23
2023-07-25T19:20:35.027Z,17.24
2023-07-25T19:22:38.105Z,17.24
2023-07-25T19:24:41.368Z,17.25
2023-07-25T19:26:44.617Z,17.25
2023-07-25T19:28:47.715Z,17.26
2023-07-25T19:30:49.896Z,17.26
2023-07-25T19:32:53.126Z,17.27
2023-07-25T19:34:57.679Z,17.28
2023-07-25T19:37:00.712Z,17.28
2023-07-25T19:39:03.964Z,17.28
2023-07-25T19:41:15.450Z,17.30
2023-07-25T19:43:18.517Z,17.28
2023-07-25T19:45:21.591Z,17.29
2023-07-25T19:47:24.869Z,17.28
2023-07-25T19:49:27.188Z,17.27
2023-07-25T19:51:31.701Z,17.30
2023-07-25T19:53:34.872Z,17.30
2023-07-25T19:55:38.092Z,17.26
2023-07-25T19:57:41.344Z,17.25
2023-07-25T19:59:44.934Z,17.25
2023-07-25T20:01:48.393Z,17.28
2023-07-25T20:03:50.591Z,17.29
2023-07-25T20:05:53.809Z,17.32
2023-07-25T20:07:58.465Z,17.32
2023-07-25T20:10:02.400Z,17.34
2023-07-25T20:12:07.217Z,17.37
2023-07-25T20:14:10.724Z,17.39
2023-07-25T20:16:13.943Z,17.40
2023-07-25T20:18:17.125Z,17.42
2023-07-25T20:20:20.442Z,17.43
2023-07-25T20:22:23.652Z,17.43
2023-07-25T20:24:28.265Z,17.44
2023-07-25T20:26:31.621Z,17.43
2023-07-25T20:28:34.899Z,17.44
2023-07-25T20:30:38.007Z,17.44
2023-07-25T20:32:40.189Z,17.37
2023-07-25T20:34:43.430Z,17.36
2023-07-25T20:36:46.573Z,17.39
2023-07-25T20:38:49.699Z,17.39
2023-07-25T20:40:54.536Z,17.38
2023-07-25T20:42:56.638Z,17.36
2023-07-25T20:44:59.745Z,17.35
2023-07-25T20:47:01.927Z,17.33
2023-07-25T20:49:05.161Z,17.31
2023-07-25T20:51:08.370Z,17.29
2023-07-25T20:53:11.476Z,17.30
2023-07-25T20:55:14.720Z,17.30
2023-07-25T20:57:19.244Z,17.26
2023-07-25T20:59:22.525Z,17.26
2023-07-25T21:01:25.658Z,17.27
2023-07-25T21:03:29.190Z,17.26
2023-07-25T21:05:32.436Z,17.26
2023-07-25T21:07:36.450Z,17.27
2023-07-25T21:09:40.954Z,17.29
2023-07-25T21:11:44.361Z,17.29
2023-07-25T21:13:48.964Z,17.29
2023-07-25T21:15:51.101Z,17.28
2023-07-25T21:18:06.604Z,17.28
2023-07-25T21:20:16.083Z,17.27
2023-07-25T21:22:19.521Z,17.23
2023-07-25T21:24:22.680Z,17.22
2023-07-25T21:26:25.899Z,17.19
2023-07-25T21:28:29.057Z,17.16
2023-07-25T21:30:33.931Z,17.17
2023-07-25T21:32:37.151Z,17.18
2023-07-25T21:34:40.287Z,17.17
2023-07-25T21:36:43.745Z,17.14
2023-07-25T21:38:46.918Z,17.13
2023-07-25T21:40:49.297Z,17.13
2023-07-25T21:42:52.719Z,17.12
2023-07-25T21:44:57.122Z,17.09
2023-07-25T21:47:01.688Z,17.08
2023-07-25T21:49:04.889Z,17.07
2023-07-25T21:51:08.817Z,17.09
2023-07-25T21:53:11.984Z,17.10
2023-07-25T21:55:15.162Z,17.13
2023-07-25T21:57:18.293Z,17.12
2023-07-25T21:59:21.326Z,17.14
2023-07-25T22:01:24.488Z,17.13
2023-07-25T22:03:30.089Z,17.12
2023-07-25T22:05:34.140Z,17.12
2023-07-25T22:07:39.749Z,17.12
2023-07-25T22:09:42.974Z,17.13
2023-07-25T22:11:46.736Z,17.12
2023-07-25T22:13:49.892Z,17.11
2023-07-25T22:15:53.767Z,17.10
2023-07-25T22:17:56.970Z,17.08
2023-07-25T22:20:01.606Z,17.09
2023-07-25T22:22:05.015Z,17.08
2023-07-25T22:24:08.129Z,17.08
2023-07-25T22:26:11.323Z,17.08
2023-07-25T22:28:14.403Z,17.09
2023-07-25T22:30:17.810Z,17.08
2023-07-25T22:32:20.908Z,17.09
2023-07-25T22:34:23.963Z,17.08
2023-07-25T22:36:28.439Z,17.09
2023-07-25T22:38:31.557Z,17.07
2023-07-25T22:40:34.667Z,17.06
2023-07-25T22:42:37.764Z,17.05
2023-07-25T22:44:39.859Z,17.04
2023-07-25T22:46:43.024Z,17.03
2023-07-25T22:48:46.096Z,17.01
2023-07-25T22:50:50.793Z,16.99
2023-07-25T22:52:55.250Z,16.98
2023-07-25T22:54:57.332Z,16.96
2023-07-25T22:57:00.376Z,16.93
2023-07-25T22:59:05.406Z,16.90
2023-07-25T23:01:08.879Z,16.87
2023-07-25T23:03:12.075Z,16.83
2023-07-25T23:05:15.258Z,16.78
2023-07-25T23:07:18.371Z,16.75
2023-07-25T23:09:22.950Z,16.72
2023-07-25T23:11:26.025Z,16.71
2023-07-25T23:13:29.556Z,16.71
2023-07-25T23:15:32.676Z,16.71
2023-07-25T23:17:35.825Z,16.72
2023-07-25T23:19:38.921Z,16.74
2023-07-25T23:21:41.966Z,16.75
2023-07-25T23:23:45.098Z,16.74
2023-07-25T23:25:49.832Z,16.74
2023-07-25T23:27:52.885Z,16.73
2023-07-25T23:29:55.971Z,16.74
2023-07-25T23:31:59.067Z,16.75
2023-07-25T23:34:02.176Z,16.78
2023-07-25T23:36:05.842Z,16.80
2023-07-25T23:38:08.964Z,16.78
2023-07-25T23:40:13.101Z,16.80
2023-07-25T23:42:17.582Z,16.79
2023-07-25T23:44:20.649Z,16.79
2023-07-25T23:46:23.764Z,16.79
2023-07-25T23:48:26.865Z,16.80
2023-07-25T23:50:29.935Z,16.81
2023-07-25T23:52:35.015Z,16.81
2023-07-25T23:54:38.210Z,16.81
2023-07-25T23:56:42.169Z,16.80
2023-07-25T23:58:46.617Z,16.79
